Terminal Aerodrome Forecast
Issued by NWS

Home | Current Version | Previous Version | Text Only | Print | Product List | Glossary On
Versions: 1 2 3 4 5 6 7 8 9 10 11 12 13
000
FTUS45 KRIW 032127 AAA
TAFRKS
TAF AMD
KRKS 032127Z 0321/0418 16013G20KT P6SM VCTS FEW030 BKN080CB
     FM040100 26017G25KT P6SM VCSH SCT030 OVC050
     FM041000 25014KT P6SM FEW030 SCT050=

USA.gov is the U.S. government's official web portal to all federal, state and local government web resources and services.